createdAt,value
2018-06-04T00:00:22.037Z,16.40
2018-06-04T00:02:50.256Z,16.40
2018-06-04T00:05:18.552Z,16.40
2018-06-04T00:07:47.352Z,16.40
2018-06-04T00:10:15.559Z,16.40
2018-06-04T00:12:43.720Z,16.30
2018-06-04T00:15:11.904Z,16.40
2018-06-04T00:17:40.201Z,16.50
2018-06-04T00:20:08.491Z,16.50
2018-06-04T00:22:36.756Z,16.40
2018-06-04T00:25:05.005Z,16.30
2018-06-04T00:27:33.449Z,16.40
2018-06-04T00:30:01.792Z,16.40
2018-06-04T00:32:30.052Z,16.30
2018-06-04T00:34:59.026Z,16.30
2018-06-04T00:37:27.236Z,16.30
2018-06-04T00:39:56.012Z,16.30
2018-06-04T00:42:24.594Z,16.30
2018-06-04T00:44:53.996Z,16.30
2018-06-04T00:47:24.429Z,16.30
2018-06-04T00:49:59.110Z,16.20
2018-06-04T00:52:28.191Z,16.20
2018-06-04T00:54:56.900Z,16.20
2018-06-04T00:57:25.962Z,16.20
2018-06-04T00:59:54.789Z,16.20
2018-06-04T01:02:24.679Z,16.20
2018-06-04T01:04:56.189Z,16.20
2018-06-04T01:07:25.207Z,16.20
2018-06-04T01:09:54.088Z,16.20
2018-06-04T01:12:22.986Z,16.20
2018-06-04T01:14:51.304Z,16.20
2018-06-04T01:17:30.502Z,16.10
2018-06-04T01:19:59.385Z,16.10
2018-06-04T01:22:27.906Z,16.10
2018-06-04T01:24:57.552Z,16.10
2018-06-04T01:27:27.359Z,16.00
2018-06-04T01:29:56.999Z,16.10
2018-06-04T01:32:26.673Z,16.10
2018-06-04T01:34:55.567Z,16.10
2018-06-04T01:37:25.521Z,16.10
2018-06-04T01:39:54.202Z,16.20
2018-06-04T01:42:22.907Z,16.20
2018-06-04T01:45:01.849Z,16.30
2018-06-04T01:47:30.428Z,16.30
2018-06-04T01:50:00.216Z,16.40
2018-06-04T01:52:29.854Z,16.50
2018-06-04T01:54:59.458Z,16.60
2018-06-04T01:57:29.518Z,16.60
2018-06-04T01:59:58.954Z,16.70
2018-06-04T02:02:27.209Z,16.70
2018-06-04T02:04:55.401Z,16.70
2018-06-04T02:07:25.433Z,16.80
2018-06-04T02:09:54.103Z,16.90
2018-06-04T02:12:22.361Z,16.90
2018-06-04T02:14:51.965Z,16.90
2018-06-04T02:17:24.861Z,16.90
2018-06-04T02:19:56.267Z,17.00
2018-06-04T02:22:28.113Z,17.00
2018-06-04T02:24:59.497Z,17.00
2018-06-04T02:27:30.419Z,17.10
2018-06-04T02:30:02.597Z,17.10
2018-06-04T02:32:30.826Z,17.10
2018-06-04T02:35:01.422Z,17.20
2018-06-04T02:37:29.881Z,17.20
2018-06-04T02:39:58.215Z,17.30
2018-06-04T02:42:26.589Z,17.30
2018-06-04T02:44:54.796Z,17.30
2018-06-04T02:47:23.051Z,17.30
2018-06-04T02:49:51.521Z,17.30
2018-06-04T02:52:19.745Z,17.30
2018-06-04T02:54:48.153Z,17.30
2018-06-04T02:57:16.452Z,17.30
2018-06-04T02:59:44.804Z,17.40
2018-06-04T03:02:13.069Z,17.40
2018-06-04T03:04:41.377Z,17.40
2018-06-04T03:07:09.606Z,17.50
2018-06-04T03:09:37.939Z,17.50
2018-06-04T03:12:06.225Z,17.50
2018-06-04T03:14:34.791Z,17.40
2018-06-04T03:17:03.085Z,17.50
2018-06-04T03:19:31.345Z,17.50
2018-06-04T03:21:59.560Z,17.60
2018-06-04T03:24:27.812Z,17.60
2018-06-04T03:26:56.095Z,17.60
2018-06-04T03:29:24.322Z,17.60
2018-06-04T03:31:53.055Z,17.60
2018-06-04T03:34:21.403Z,17.60
2018-06-04T03:36:49.626Z,17.60
2018-06-04T03:39:18.140Z,17.60
2018-06-04T03:41:46.349Z,17.70
2018-06-04T03:44:14.588Z,17.70
2018-06-04T03:46:42.838Z,17.60
2018-06-04T03:49:11.084Z,17.60
2018-06-04T03:51:39.406Z,17.60
2018-06-04T03:54:07.732Z,17.60
2018-06-04T03:56:36.885Z,17.60
2018-06-04T03:59:05.219Z,17.60
2018-06-04T04:01:33.469Z,17.70
2018-06-04T04:04:01.805Z,17.60
2018-06-04T04:06:30.065Z,17.70
2018-06-04T04:08:58.393Z,17.70
2018-06-04T04:11:26.661Z,17.70
2018-06-04T04:13:54.949Z,17.70
2018-06-04T04:16:23.260Z,17.70
2018-06-04T04:18:51.677Z,17.70
2018-06-04T04:21:19.973Z,17.70
2018-06-04T04:23:48.238Z,17.70
2018-06-04T04:26:17.057Z,17.70
2018-06-04T04:28:45.592Z,17.60
2018-06-04T04:31:14.024Z,17.60
2018-06-04T04:33:42.461Z,17.60
2018-06-04T04:36:10.672Z,17.60
2018-06-04T04:38:39.037Z,17.60
2018-06-04T04:41:07.493Z,17.60
2018-06-04T04:43:35.689Z,17.60
2018-06-04T04:46:03.945Z,17.60
2018-06-04T04:48:32.671Z,17.60
2018-06-04T04:51:01.131Z,17.60
2018-06-04T04:53:29.379Z,17.60
2018-06-04T04:55:57.622Z,17.60
2018-06-04T04:58:25.911Z,17.60
2018-06-04T05:00:54.184Z,17.60
2018-06-04T05:03:22.508Z,17.60
2018-06-04T05:05:50.806Z,17.60
2018-06-04T05:08:19.169Z,17.50
2018-06-04T05:10:47.463Z,17.50
2018-06-04T05:13:16.481Z,17.50
2018-06-04T05:15:44.993Z,17.50
2018-06-04T05:18:13.207Z,17.50
2018-06-04T05:20:41.467Z,17.50
2018-06-04T05:23:09.786Z,17.60
2018-06-04T05:25:38.189Z,17.50
2018-06-04T05:28:06.570Z,17.50
2018-06-04T05:30:34.848Z,17.60
2018-06-04T05:33:03.048Z,17.60
2018-06-04T05:35:31.597Z,17.70
2018-06-04T05:37:59.920Z,17.80
2018-06-04T05:40:28.781Z,17.70
2018-06-04T05:42:57.073Z,17.80
2018-06-04T05:45:25.331Z,17.90
2018-06-04T05:47:53.660Z,17.90
2018-06-04T05:50:22.789Z,17.90
2018-06-04T05:52:51.205Z,17.90
2018-06-04T05:55:19.514Z,17.90
2018-06-04T05:57:47.781Z,17.90
2018-06-04T06:00:16.114Z,17.90
2018-06-04T06:02:44.446Z,17.90
2018-06-04T06:05:12.908Z,17.90
2018-06-04T06:07:41.180Z,18.00
2018-06-04T06:10:09.664Z,18.00
2018-06-04T06:12:37.931Z,18.10
2018-06-04T06:15:06.244Z,18.10
2018-06-04T06:17:34.607Z,18.10
2018-06-04T06:20:03.056Z,18.20
2018-06-04T06:22:31.654Z,18.20
2018-06-04T06:25:00.644Z,18.30
2018-06-04T06:27:29.282Z,18.30
2018-06-04T06:29:57.872Z,18.30
2018-06-04T06:32:26.671Z,18.30
2018-06-04T06:34:56.029Z,18.40
2018-06-04T06:37:25.213Z,18.40
2018-06-04T06:39:54.240Z,18.40
2018-06-04T06:42:23.291Z,18.50
2018-06-04T06:44:53.034Z,18.50
2018-06-04T06:47:22.098Z,18.40
2018-06-04T06:49:50.530Z,18.40
2018-06-04T06:52:18.850Z,18.40
2018-06-04T06:54:47.124Z,18.40
2018-06-04T06:57:15.310Z,18.50
2018-06-04T06:59:43.461Z,18.50
2018-06-04T07:02:11.739Z,18.60
2018-06-04T07:04:40.035Z,18.60
2018-06-04T07:07:08.204Z,18.60
2018-06-04T07:09:36.477Z,18.60
2018-06-04T07:12:04.828Z,18.50
2018-06-04T07:14:33.391Z,18.50
2018-06-04T07:17:02.226Z,18.50
2018-06-04T07:19:30.465Z,18.60
2018-06-04T07:21:58.784Z,18.60
2018-06-04T07:24:29.321Z,18.60
2018-06-04T07:26:57.642Z,18.70
2018-06-04T07:29:26.074Z,18.60
2018-06-04T07:31:54.296Z,18.60
2018-06-04T07:34:22.600Z,18.60
2018-06-04T07:36:50.806Z,18.60
2018-06-04T07:39:19.020Z,18.70
2018-06-04T07:41:47.770Z,18.70
2018-06-04T07:44:16.073Z,18.70
2018-06-04T07:46:44.332Z,18.70
2018-06-04T07:49:12.544Z,18.70
2018-06-04T07:51:40.733Z,18.80
2018-06-04T07:54:09.085Z,18.80
2018-06-04T07:56:37.309Z,18.80
2018-06-04T07:59:05.838Z,18.80
2018-06-04T08:01:34.259Z,18.90
2018-06-04T08:04:02.480Z,18.90
2018-06-04T08:06:30.728Z,19.10
2018-06-04T08:08:58.935Z,19.30
2018-06-04T08:11:27.152Z,19.30
2018-06-04T08:13:55.489Z,19.20
2018-06-04T08:16:23.709Z,19.10
2018-06-04T08:18:51.943Z,18.90
2018-06-04T08:21:20.125Z,18.70
2018-06-04T08:23:48.766Z,18.50
2018-06-04T08:26:17.089Z,18.50
2018-06-04T08:28:45.261Z,18.40
2018-06-04T08:31:13.491Z,18.40
2018-06-04T08:33:41.656Z,18.30
2018-06-04T08:36:09.908Z,18.30
2018-06-04T08:38:38.361Z,18.20
2018-06-04T08:41:06.609Z,18.20
2018-06-04T08:43:34.836Z,18.10
2018-06-04T08:46:03.266Z,18.10
2018-06-04T08:48:31.445Z,18.10
2018-06-04T08:50:59.656Z,18.10
2018-06-04T08:53:27.869Z,18.20
2018-06-04T08:55:56.149Z,18.20
2018-06-04T08:58:24.375Z,18.30
2018-06-04T09:00:52.608Z,18.40
2018-06-04T09:03:20.871Z,18.40
2018-06-04T09:05:49.017Z,18.30
2018-06-04T09:08:17.653Z,18.20
2018-06-04T09:10:46.493Z,18.20
2018-06-04T09:13:14.989Z,18.30
2018-06-04T09:15:43.285Z,18.20
2018-06-04T09:18:12.776Z,18.20
2018-06-04T09:20:41.507Z,18.30
2018-06-04T09:23:10.508Z,18.30
2018-06-04T09:25:38.971Z,18.40
2018-06-04T09:28:07.240Z,18.30
2018-06-04T09:30:35.704Z,18.30
2018-06-04T09:33:04.081Z,18.30
2018-06-04T09:35:32.345Z,18.30
2018-06-04T09:38:00.553Z,18.30
2018-06-04T09:40:28.806Z,18.20
2018-06-04T09:42:57.112Z,18.30
2018-06-04T09:45:25.402Z,18.30
2018-06-04T09:47:53.659Z,18.30
2018-06-04T09:50:22.365Z,18.20
2018-06-04T09:52:50.549Z,18.30
2018-06-04T09:55:18.916Z,18.30
2018-06-04T09:57:47.084Z,18.40
2018-06-04T10:00:19.593Z,18.40
2018-06-04T10:02:48.321Z,18.40
2018-06-04T10:05:16.553Z,18.40
2018-06-04T10:07:44.910Z,18.50
2018-06-04T10:10:13.172Z,18.80
2018-06-04T10:12:41.397Z,18.80
2018-06-04T10:15:09.632Z,18.80
2018-06-04T10:17:37.937Z,18.80
2018-06-04T10:20:06.121Z,18.90
2018-06-04T10:22:34.353Z,19.00
2018-06-04T10:25:02.734Z,19.20
2018-06-04T10:27:30.928Z,19.10
2018-06-04T10:29:59.236Z,19.10
2018-06-04T10:32:27.381Z,19.10
2018-06-04T10:34:55.584Z,19.20
2018-06-04T10:37:23.888Z,19.20
2018-06-04T10:39:52.311Z,19.10
2018-06-04T10:42:20.756Z,19.10
2018-06-04T10:44:49.177Z,19.10
2018-06-04T10:47:17.406Z,19.20
2018-06-04T10:49:45.588Z,19.20
2018-06-04T10:52:13.888Z,19.10
2018-06-04T10:54:42.079Z,19.00
2018-06-04T10:57:10.457Z,19.10
2018-06-04T10:59:38.714Z,19.10
2018-06-04T11:02:06.962Z,19.20
2018-06-04T11:04:35.072Z,19.20
2018-06-04T11:07:03.456Z,19.10
2018-06-04T11:09:32.058Z,19.20
2018-06-04T11:12:01.202Z,19.20
2018-06-04T11:14:29.874Z,19.30
2018-06-04T11:16:58.096Z,19.30
2018-06-04T11:19:26.271Z,19.20
2018-06-04T11:21:54.493Z,19.30
2018-06-04T11:24:22.827Z,19.40
2018-06-04T11:26:51.017Z,19.40
2018-06-04T11:29:19.233Z,19.40
2018-06-04T11:31:47.436Z,19.40
2018-06-04T11:34:15.674Z,19.20
2018-06-04T11:36:44.025Z,19.20
2018-06-04T11:39:12.473Z,19.10
2018-06-04T11:41:40.688Z,19.10
2018-06-04T11:44:08.935Z,19.10
2018-06-04T11:46:37.148Z,19.30
2018-06-04T11:49:05.504Z,19.40
2018-06-04T11:51:33.732Z,19.40
2018-06-04T11:54:02.707Z,19.40
2018-06-04T11:56:30.915Z,19.50
2018-06-04T11:58:59.472Z,19.40
2018-06-04T12:01:28.152Z,19.30
2018-06-04T12:03:56.612Z,19.30
2018-06-04T12:06:25.621Z,19.40
2018-06-04T12:08:54.057Z,19.40
2018-06-04T12:11:22.295Z,19.50
2018-06-04T12:13:50.975Z,19.50
2018-06-04T12:16:19.326Z,19.50
2018-06-04T12:18:47.525Z,19.60
2018-06-04T12:21:15.743Z,19.60
2018-06-04T12:23:43.971Z,19.60
2018-06-04T12:26:16.629Z,19.70
2018-06-04T12:28:45.231Z,19.80
2018-06-04T12:31:13.581Z,19.90
2018-06-04T12:33:42.777Z,20.00
2018-06-04T12:36:11.128Z,20.10
2018-06-04T12:38:39.397Z,20.10
2018-06-04T12:41:07.810Z,20.20
2018-06-04T12:43:36.248Z,20.20
2018-06-04T12:46:04.649Z,20.20
2018-06-04T12:48:33.135Z,20.20
2018-06-04T12:51:01.338Z,20.20
2018-06-04T12:53:29.852Z,20.20
2018-06-04T12:55:58.550Z,20.10
2018-06-04T12:58:26.787Z,20.00
2018-06-04T13:00:54.913Z,20.00
2018-06-04T13:03:23.782Z,20.00
2018-06-04T13:05:52.033Z,20.00
2018-06-04T13:08:20.619Z,20.00
2018-06-04T13:10:49.141Z,19.80
2018-06-04T13:13:17.503Z,19.70
2018-06-04T13:15:45.694Z,19.70
2018-06-04T13:18:14.105Z,19.70
2018-06-04T13:20:42.293Z,19.60
2018-06-04T13:23:11.018Z,19.60
2018-06-04T13:28:07.525Z,19.70
2018-06-04T13:30:35.771Z,19.70
2018-06-04T13:33:04.012Z,19.70
2018-06-04T13:35:32.285Z,19.80
2018-06-04T13:38:00.578Z,19.70
2018-06-04T13:45:25.238Z,19.70
2018-06-04T13:47:53.572Z,19.70
2018-06-04T13:50:22.036Z,19.70
2018-06-04T13:52:50.322Z,19.70
2018-06-04T13:55:18.816Z,19.60
2018-06-04T13:57:47.453Z,19.60
2018-06-04T14:00:16.102Z,19.60
2018-06-04T14:02:44.771Z,19.60
2018-06-04T14:05:13.124Z,19.60
2018-06-04T14:07:41.514Z,19.70
2018-06-04T14:10:09.973Z,19.70
2018-06-04T14:15:06.611Z,19.70
2018-06-04T14:17:34.808Z,19.70
2018-06-04T14:20:03.318Z,19.60
2018-06-04T14:22:31.786Z,19.60
2018-06-04T14:25:00.049Z,19.60
2018-06-04T14:27:28.548Z,19.60
2018-06-04T14:29:57.647Z,19.70
2018-06-04T14:32:26.268Z,19.70
2018-06-04T14:34:54.555Z,19.60
2018-06-04T14:37:22.787Z,19.60
2018-06-04T14:39:51.434Z,19.50
2018-06-04T14:42:19.892Z,19.50
2018-06-04T14:44:48.201Z,19.50
2018-06-04T14:47:16.985Z,19.60
2018-06-04T14:49:45.323Z,19.60
2018-06-04T14:52:13.716Z,19.60
2018-06-04T14:54:42.157Z,19.60
2018-06-04T14:57:10.431Z,19.70
2018-06-04T14:59:39.153Z,19.80
2018-06-04T15:02:08.643Z,19.90
2018-06-04T15:04:37.099Z,19.90
2018-06-04T15:07:05.673Z,20.00
2018-06-04T15:09:34.025Z,20.10
2018-06-04T15:12:02.605Z,20.10
2018-06-04T15:14:31.104Z,20.20
2018-06-04T15:16:59.418Z,20.20
2018-06-04T15:19:27.680Z,20.20
2018-06-04T15:21:55.946Z,20.20
2018-06-04T15:24:24.197Z,20.20
2018-06-04T15:26:52.573Z,20.10
2018-06-04T15:29:20.887Z,20.00
2018-06-04T15:31:49.163Z,20.00
2018-06-04T15:34:17.773Z,19.90
2018-06-04T15:36:46.128Z,19.90
2018-06-04T15:39:14.391Z,19.90
2018-06-04T15:41:42.841Z,19.90
2018-06-04T15:44:12.394Z,19.80
2018-06-04T15:46:40.940Z,19.90
2018-06-04T15:49:09.252Z,20.00
2018-06-04T15:51:37.519Z,20.00
2018-06-04T15:54:05.882Z,20.00
2018-06-04T15:56:35.268Z,19.90
2018-06-04T15:59:03.557Z,20.00
2018-06-04T16:01:31.781Z,20.00
2018-06-04T16:03:59.996Z,20.00
2018-06-04T16:06:28.296Z,20.00
2018-06-04T16:08:56.474Z,19.90
2018-06-04T16:11:24.906Z,20.00
2018-06-04T16:13:53.121Z,19.90
2018-06-04T16:16:21.360Z,19.80
2018-06-04T16:18:49.662Z,19.70
2018-06-04T16:21:18.499Z,19.60
2018-06-04T16:23:46.813Z,19.50
2018-06-04T16:26:20.997Z,19.50
2018-06-04T16:28:49.423Z,19.50
2018-06-04T16:31:17.788Z,19.40
2018-06-04T16:33:46.003Z,19.40
2018-06-04T16:36:14.259Z,19.40
2018-06-04T16:38:42.593Z,19.40
2018-06-04T16:41:10.818Z,19.40
2018-06-04T16:43:39.093Z,19.30
2018-06-04T16:46:07.440Z,19.20
2018-06-04T16:48:35.718Z,19.10
2018-06-04T16:51:04.440Z,19.00
2018-06-04T16:53:33.209Z,18.90
2018-06-04T16:56:03.345Z,18.90
2018-06-04T16:58:31.585Z,18.90
2018-06-04T17:00:59.881Z,18.80
2018-06-04T17:03:29.019Z,18.80
2018-06-04T17:05:57.360Z,18.70
2018-06-04T17:08:25.920Z,18.70
2018-06-04T17:10:54.590Z,18.70
2018-06-04T17:13:22.865Z,18.70
2018-06-04T17:15:51.079Z,18.70
2018-06-04T17:18:20.393Z,18.60
2018-06-04T17:20:48.873Z,18.60
2018-06-04T17:23:17.101Z,18.70
2018-06-04T17:25:45.658Z,18.70
2018-06-04T17:28:14.114Z,18.70
2018-06-04T17:30:42.428Z,18.60
2018-06-04T17:33:10.837Z,18.60
2018-06-04T17:35:39.176Z,18.70
2018-06-04T17:38:07.548Z,18.70
2018-06-04T17:40:35.780Z,18.70
2018-06-04T17:43:04.115Z,18.60
2018-06-04T17:45:32.688Z,18.50
2018-06-04T17:48:01.058Z,18.50
2018-06-04T17:50:29.820Z,18.50
2018-06-04T17:52:58.682Z,18.50
2018-06-04T17:55:27.020Z,18.40
2018-06-04T17:57:55.673Z,18.50
2018-06-04T18:00:23.948Z,18.50
2018-06-04T18:02:52.285Z,18.50
2018-06-04T18:05:21.411Z,18.40
2018-06-04T18:07:49.795Z,18.50
2018-06-04T18:12:47.934Z,18.50
2018-06-04T18:15:16.259Z,18.40
2018-06-04T18:17:44.800Z,18.40
2018-06-04T18:20:13.524Z,18.40
2018-06-04T18:22:41.786Z,18.40
2018-06-04T18:25:09.976Z,18.50
2018-06-04T18:27:38.231Z,18.40
2018-06-04T18:30:06.424Z,18.40
2018-06-04T18:32:35.029Z,18.40
2018-06-04T18:35:05.124Z,18.40
2018-06-04T18:37:33.621Z,18.30
2018-06-04T18:40:02.340Z,18.20
2018-06-04T18:42:30.504Z,18.20
2018-06-04T18:44:59.014Z,18.10
2018-06-04T18:47:27.184Z,18.00
2018-06-04T18:49:55.408Z,18.00
2018-06-04T18:52:23.856Z,17.90
2018-06-04T18:54:52.169Z,17.90
2018-06-04T18:57:20.464Z,17.80
2018-06-04T18:59:48.600Z,17.80
2018-06-04T19:02:16.882Z,17.90
2018-06-04T19:04:45.120Z,17.90
2018-06-04T19:07:13.644Z,17.90
2018-06-04T19:09:42.666Z,17.80
2018-06-04T19:12:10.844Z,17.80
2018-06-04T19:14:39.120Z,17.80
2018-06-04T19:17:07.543Z,17.80
2018-06-04T19:19:35.951Z,17.70
2018-06-04T19:22:04.714Z,17.60
2018-06-04T19:24:33.018Z,17.60
2018-06-04T19:27:01.185Z,17.60
2018-06-04T19:29:29.325Z,17.60
2018-06-04T19:31:57.589Z,17.60
2018-06-04T19:34:25.744Z,17.60
2018-06-04T19:36:53.937Z,17.60
2018-06-04T19:39:22.172Z,17.60
2018-06-04T19:41:50.333Z,17.60
2018-06-04T19:44:18.489Z,17.60
2018-06-04T19:46:46.957Z,17.70
2018-06-04T19:49:15.222Z,17.80
2018-06-04T19:51:44.396Z,17.70
2018-06-04T19:54:12.617Z,17.70
2018-06-04T19:56:40.791Z,17.70
2018-06-04T19:59:08.983Z,17.70
2018-06-04T20:01:37.492Z,17.70
2018-06-04T20:04:05.725Z,17.60
2018-06-04T20:06:34.101Z,17.60
2018-06-04T20:09:02.422Z,17.60
2018-06-04T20:11:30.799Z,17.60
2018-06-04T20:13:59.236Z,17.60
2018-06-04T20:16:27.558Z,17.60
2018-06-04T20:18:56.433Z,17.60
2018-06-04T20:21:24.640Z,17.70
2018-06-04T20:23:52.912Z,17.70
2018-06-04T20:26:21.713Z,17.70
2018-06-04T20:28:50.001Z,17.70
2018-06-04T20:31:19.177Z,17.70
2018-06-04T20:33:47.497Z,17.70
2018-06-04T20:36:15.773Z,17.60
2018-06-04T20:38:44.057Z,17.60
2018-06-04T20:41:12.360Z,17.70
2018-06-04T20:43:40.591Z,17.60
2018-06-04T20:46:08.814Z,17.70
2018-06-04T20:48:36.995Z,17.70
2018-06-04T20:51:05.321Z,17.70
2018-06-04T20:53:33.620Z,17.70
2018-06-04T20:56:01.842Z,17.70
2018-06-04T20:58:30.094Z,17.70
2018-06-04T21:00:58.354Z,17.70
2018-06-04T21:03:27.740Z,17.70
2018-06-04T21:05:55.930Z,17.70
2018-06-04T21:08:24.144Z,17.70
2018-06-04T21:10:52.431Z,17.70
2018-06-04T21:13:20.935Z,17.60
2018-06-04T21:15:49.282Z,17.70
2018-06-04T21:18:17.456Z,17.80
2018-06-04T21:20:47.076Z,17.80
2018-06-04T21:23:15.518Z,17.80
2018-06-04T21:25:43.824Z,17.70
2018-06-04T21:28:12.180Z,17.70
2018-06-04T21:30:41.407Z,17.80
2018-06-04T21:33:09.774Z,17.80
2018-06-04T21:35:38.260Z,17.80
2018-06-04T21:38:06.551Z,17.80
2018-06-04T21:40:34.710Z,17.70
2018-06-04T21:43:02.949Z,17.70
2018-06-04T21:45:31.124Z,17.80
2018-06-04T21:47:59.304Z,17.80
2018-06-04T21:50:28.088Z,17.80
2018-06-04T21:52:56.255Z,17.70
2018-06-04T21:55:24.496Z,17.70
2018-06-04T21:57:52.683Z,17.80
2018-06-04T22:00:21.042Z,17.80
2018-06-04T22:02:49.206Z,17.70
2018-06-04T22:05:17.356Z,17.70
2018-06-04T22:07:45.511Z,17.60
2018-06-04T22:10:13.883Z,17.50
2018-06-04T22:12:42.029Z,17.50
2018-06-04T22:15:10.184Z,17.50
2018-06-04T22:17:38.388Z,17.50
2018-06-04T22:20:06.589Z,17.50
2018-06-04T22:22:34.844Z,17.50
2018-06-04T22:25:02.976Z,17.50
2018-06-04T22:27:31.125Z,17.50
2018-06-04T22:29:59.321Z,17.60
2018-06-04T22:32:27.559Z,17.60
2018-06-04T22:34:55.872Z,17.60
2018-06-04T22:37:24.014Z,17.60
2018-06-04T22:39:52.204Z,17.60
2018-06-04T22:42:20.566Z,17.60
2018-06-04T22:44:48.900Z,17.60
2018-06-04T22:47:17.041Z,17.60
2018-06-04T22:49:45.236Z,17.50
2018-06-04T22:52:13.414Z,17.40
2018-06-04T22:54:41.560Z,17.30
2018-06-04T22:57:09.813Z,17.30
2018-06-04T22:59:37.931Z,17.10
2018-06-04T23:02:06.093Z,17.10
2018-06-04T23:04:35.153Z,17.10
2018-06-04T23:07:03.306Z,17.00
2018-06-04T23:09:31.526Z,17.10
2018-06-04T23:11:59.808Z,17.10
2018-06-04T23:14:27.948Z,17.00
2018-06-04T23:16:56.665Z,17.00
2018-06-04T23:19:24.803Z,17.00
2018-06-04T23:21:52.989Z,17.00
2018-06-04T23:24:21.306Z,17.00
2018-06-04T23:26:49.452Z,17.00
2018-06-04T23:29:17.751Z,16.90
2018-06-04T23:31:45.976Z,16.90
2018-06-04T23:34:14.625Z,16.90
2018-06-04T23:36:43.071Z,17.00
2018-06-04T23:39:11.316Z,16.90
2018-06-04T23:41:39.508Z,16.90
2018-06-04T23:44:08.012Z,16.90
2018-06-04T23:46:36.223Z,16.90
2018-06-04T23:49:04.457Z,16.70
2018-06-04T23:51:33.269Z,16.70
2018-06-04T23:54:01.499Z,16.70
2018-06-04T23:56:29.669Z,16.60
2018-06-04T23:58:57.895Z,16.50
